sensor_id;sensor_type;location;lat;lon;timestamp;P1;durP1;ratioP1;P2;durP2;ratioP2
19867;SDS011;10096;51.112;6.776;2023-01-15T00:01:16;2.13;;;1.30;;
19867;SDS011;10096;51.112;6.776;2023-01-15T00:03:46;4.10;;;1.60;;
19867;SDS011;10096;51.112;6.776;2023-01-15T00:06:13;3.40;;;1.80;;
19867;SDS011;10096;51.112;6.776;2023-01-15T00:08:40;3.80;;;1.67;;
19867;SDS011;10096;51.112;6.776;2023-01-15T00:11:07;2.83;;;1.30;;
19867;SDS011;10096;51.112;6.776;2023-01-15T00:13:35;2.83;;;1.20;;
19867;SDS011;10096;51.112;6.776;2023-01-15T00:16:04;4.00;;;1.47;;
19867;SDS011;10096;51.112;6.776;2023-01-15T00:18:32;2.00;;;1.30;;
19867;SDS011;10096;51.112;6.776;2023-01-15T00:20:59;1.83;;;1.17;;
19867;SDS011;10096;51.112;6.776;2023-01-15T00:23:26;1.47;;;0.90;;
19867;SDS011;10096;51.112;6.776;2023-01-15T00:26:11;1.90;;;1.50;;
19867;SDS011;10096;51.112;6.776;2023-01-15T00:28:57;2.30;;;1.40;;
19867;SDS011;10096;51.112;6.776;2023-01-15T00:31:26;4.40;;;1.53;;
19867;SDS011;10096;51.112;6.776;2023-01-15T00:33:54;3.23;;;1.70;;
19867;SDS011;10096;51.112;6.776;2023-01-15T00:36:21;4.33;;;1.50;;
19867;SDS011;10096;51.112;6.776;2023-01-15T00:38:49;1.90;;;1.23;;
19867;SDS011;10096;51.112;6.776;2023-01-15T00:41:16;1.50;;;1.40;;
19867;SDS011;10096;51.112;6.776;2023-01-15T00:43:44;3.10;;;1.30;;
19867;SDS011;10096;51.112;6.776;2023-01-15T00:46:11;2.27;;;1.30;;
19867;SDS011;10096;51.112;6.776;2023-01-15T00:48:40;1.53;;;1.10;;
19867;SDS011;10096;51.112;6.776;2023-01-15T00:51:07;3.73;;;1.50;;
19867;SDS011;10096;51.112;6.776;2023-01-15T00:53:34;2.10;;;1.20;;
19867;SDS011;10096;51.112;6.776;2023-01-15T00:56:00;2.27;;;1.33;;
19867;SDS011;10096;51.112;6.776;2023-01-15T00:58:27;4.73;;;1.30;;
19867;SDS011;10096;51.112;6.776;2023-01-15T01:00:54;1.17;;;0.90;;
19867;SDS011;10096;51.112;6.776;2023-01-15T01:03:22;2.30;;;1.10;;
19867;SDS011;10096;51.112;6.776;2023-01-15T01:05:51;1.43;;;1.10;;
19867;SDS011;10096;51.112;6.776;2023-01-15T01:08:18;2.23;;;1.10;;
19867;SDS011;10096;51.112;6.776;2023-01-15T01:10:45;1.70;;;1.20;;
19867;SDS011;10096;51.112;6.776;2023-01-15T01:13:12;2.47;;;1.10;;
19867;SDS011;10096;51.112;6.776;2023-01-15T01:15:39;1.67;;;1.10;;
19867;SDS011;10096;51.112;6.776;2023-01-15T01:18:06;2.03;;;1.30;;
19867;SDS011;10096;51.112;6.776;2023-01-15T01:20:33;1.27;;;1.10;;
19867;SDS011;10096;51.112;6.776;2023-01-15T01:23:04;1.30;;;1.20;;
19867;SDS011;10096;51.112;6.776;2023-01-15T01:25:31;2.10;;;1.90;;
19867;SDS011;10096;51.112;6.776;2023-01-15T01:27:58;1.67;;;1.57;;
19867;SDS011;10096;51.112;6.776;2023-01-15T01:30:25;1.87;;;1.77;;
19867;SDS011;10096;51.112;6.776;2023-01-15T01:32:57;1.37;;;1.27;;
19867;SDS011;10096;51.112;6.776;2023-01-15T01:35:25;2.20;;;0.90;;
19867;SDS011;10096;51.112;6.776;2023-01-15T01:37:51;2.57;;;1.20;;
19867;SDS011;10096;51.112;6.776;2023-01-15T01:40:20;0.80;;;0.70;;
19867;SDS011;10096;51.112;6.776;2023-01-15T01:42:57;0.80;;;0.80;;
19867;SDS011;10096;51.112;6.776;2023-01-15T01:45:25;1.30;;;1.17;;
19867;SDS011;10096;51.112;6.776;2023-01-15T01:47:55;1.63;;;0.90;;
19867;SDS011;10096;51.112;6.776;2023-01-15T01:50:25;2.67;;;1.10;;
19867;SDS011;10096;51.112;6.776;2023-01-15T01:52:54;2.07;;;1.00;;
19867;SDS011;10096;51.112;6.776;2023-01-15T01:55:26;1.10;;;1.00;;
19867;SDS011;10096;51.112;6.776;2023-01-15T01:57:56;1.63;;;1.37;;
19867;SDS011;10096;51.112;6.776;2023-01-15T02:00:25;1.27;;;1.17;;
19867;SDS011;10096;51.112;6.776;2023-01-15T02:02:55;1.07;;;1.00;;
19867;SDS011;10096;51.112;6.776;2023-01-15T02:05:26;2.63;;;1.30;;
19867;SDS011;10096;51.112;6.776;2023-01-15T02:07:54;1.87;;;1.13;;
19867;SDS011;10096;51.112;6.776;2023-01-15T02:10:21;3.27;;;1.00;;
19867;SDS011;10096;51.112;6.776;2023-01-15T02:12:51;2.33;;;1.10;;
19867;SDS011;10096;51.112;6.776;2023-01-15T02:15:25;3.10;;;1.40;;
19867;SDS011;10096;51.112;6.776;2023-01-15T02:17:54;1.80;;;1.00;;
19867;SDS011;10096;51.112;6.776;2023-01-15T02:20:28;1.80;;;1.00;;
19867;SDS011;10096;51.112;6.776;2023-01-15T02:26:04;2.53;;;1.20;;
19867;SDS011;10096;51.112;6.776;2023-01-15T02:28:45;2.63;;;0.87;;
19867;SDS011;10096;51.112;6.776;2023-01-15T02:31:16;3.50;;;1.10;;
19867;SDS011;10096;51.112;6.776;2023-01-15T02:33:48;1.37;;;1.03;;
19867;SDS011;10096;51.112;6.776;2023-01-15T02:36:22;1.97;;;1.00;;
19867;SDS011;10096;51.112;6.776;2023-01-15T02:38:52;2.23;;;1.30;;
19867;SDS011;10096;51.112;6.776;2023-01-15T02:41:23;2.07;;;1.00;;
19867;SDS011;10096;51.112;6.776;2023-01-15T02:43:54;2.00;;;1.07;;
19867;SDS011;10096;51.112;6.776;2023-01-15T02:46:23;1.73;;;1.13;;
19867;SDS011;10096;51.112;6.776;2023-01-15T02:48:54;2.27;;;1.30;;
19867;SDS011;10096;51.112;6.776;2023-01-15T02:51:24;1.57;;;1.07;;
19867;SDS011;10096;51.112;6.776;2023-01-15T02:53:57;2.33;;;1.10;;
19867;SDS011;10096;51.112;6.776;2023-01-15T02:56:27;2.03;;;1.27;;
19867;SDS011;10096;51.112;6.776;2023-01-15T02:58:59;2.03;;;1.10;;
19867;SDS011;10096;51.112;6.776;2023-01-15T03:01:31;1.00;;;1.00;;
19867;SDS011;10096;51.112;6.776;2023-01-15T03:04:06;1.20;;;1.03;;
19867;SDS011;10096;51.112;6.776;2023-01-15T03:06:40;1.23;;;1.13;;
19867;SDS011;10096;51.112;6.776;2023-01-15T03:09:11;1.03;;;0.90;;
19867;SDS011;10096;51.112;6.776;2023-01-15T03:11:41;1.43;;;1.30;;
19867;SDS011;10096;51.112;6.776;2023-01-15T03:14:15;1.43;;;1.10;;
19867;SDS011;10096;51.112;6.776;2023-01-15T03:16:48;2.40;;;1.20;;
19867;SDS011;10096;51.112;6.776;2023-01-15T03:19:20;3.10;;;1.00;;
19867;SDS011;10096;51.112;6.776;2023-01-15T03:21:52;1.90;;;1.30;;
19867;SDS011;10096;51.112;6.776;2023-01-15T03:24:24;2.57;;;1.40;;
19867;SDS011;10096;51.112;6.776;2023-01-15T03:26:55;2.33;;;1.10;;
19867;SDS011;10096;51.112;6.776;2023-01-15T03:29:23;2.00;;;1.13;;
19867;SDS011;10096;51.112;6.776;2023-01-15T03:31:55;4.30;;;1.20;;
19867;SDS011;10096;51.112;6.776;2023-01-15T03:34:24;3.90;;;1.40;;
19867;SDS011;10096;51.112;6.776;2023-01-15T03:36:52;2.80;;;1.40;;
19867;SDS011;10096;51.112;6.776;2023-01-15T03:39:19;2.80;;;1.47;;
19867;SDS011;10096;51.112;6.776;2023-01-15T03:41:49;3.87;;;1.60;;
19867;SDS011;10096;51.112;6.776;2023-01-15T03:44:28;2.60;;;1.40;;
19867;SDS011;10096;51.112;6.776;2023-01-15T03:47:03;1.93;;;1.03;;
19867;SDS011;10096;51.112;6.776;2023-01-15T03:49:41;3.77;;;1.30;;
19867;SDS011;10096;51.112;6.776;2023-01-15T03:52:17;4.70;;;1.40;;
19867;SDS011;10096;51.112;6.776;2023-01-15T03:54:51;2.43;;;1.30;;
19867;SDS011;10096;51.112;6.776;2023-01-15T03:57:26;4.20;;;1.50;;
19867;SDS011;10096;51.112;6.776;2023-01-15T04:00:00;3.67;;;1.47;;
19867;SDS011;10096;51.112;6.776;2023-01-15T04:02:32;2.10;;;1.30;;
19867;SDS011;10096;51.112;6.776;2023-01-15T04:05:01;4.00;;;1.50;;
19867;SDS011;10096;51.112;6.776;2023-01-15T04:07:29;3.60;;;1.57;;
19867;SDS011;10096;51.112;6.776;2023-01-15T04:09:57;4.00;;;1.50;;
19867;SDS011;10096;51.112;6.776;2023-01-15T04:12:24;4.47;;;1.40;;
19867;SDS011;10096;51.112;6.776;2023-01-15T04:14:52;1.63;;;1.10;;
19867;SDS011;10096;51.112;6.776;2023-01-15T04:17:20;1.13;;;1.03;;
19867;SDS011;10096;51.112;6.776;2023-01-15T04:19:47;2.77;;;1.33;;
19867;SDS011;10096;51.112;6.776;2023-01-15T04:22:15;5.47;;;1.43;;
19867;SDS011;10096;51.112;6.776;2023-01-15T04:24:42;3.43;;;1.17;;
19867;SDS011;10096;51.112;6.776;2023-01-15T04:27:09;1.93;;;1.63;;
19867;SDS011;10096;51.112;6.776;2023-01-15T04:29:36;2.90;;;1.40;;
19867;SDS011;10096;51.112;6.776;2023-01-15T04:32:03;5.70;;;1.90;;
19867;SDS011;10096;51.112;6.776;2023-01-15T04:34:31;2.57;;;1.53;;
19867;SDS011;10096;51.112;6.776;2023-01-15T04:36:59;4.13;;;1.70;;
19867;SDS011;10096;51.112;6.776;2023-01-15T04:39:26;4.27;;;1.60;;
19867;SDS011;10096;51.112;6.776;2023-01-15T04:41:53;5.20;;;1.63;;
19867;SDS011;10096;51.112;6.776;2023-01-15T04:44:37;6.07;;;1.70;;
19867;SDS011;10096;51.112;6.776;2023-01-15T04:47:04;5.70;;;1.77;;
19867;SDS011;10096;51.112;6.776;2023-01-15T04:49:33;4.47;;;1.40;;
19867;SDS011;10096;51.112;6.776;2023-01-15T04:52:00;3.30;;;2.13;;
19867;SDS011;10096;51.112;6.776;2023-01-15T04:54:27;4.00;;;1.80;;
19867;SDS011;10096;51.112;6.776;2023-01-15T04:56:54;4.10;;;1.50;;
19867;SDS011;10096;51.112;6.776;2023-01-15T04:59:22;4.77;;;1.87;;
19867;SDS011;10096;51.112;6.776;2023-01-15T05:01:50;5.57;;;2.13;;
19867;SDS011;10096;51.112;6.776;2023-01-15T05:04:17;6.70;;;2.00;;
19867;SDS011;10096;51.112;6.776;2023-01-15T05:06:46;5.07;;;1.97;;
19867;SDS011;10096;51.112;6.776;2023-01-15T05:09:13;5.70;;;2.10;;
19867;SDS011;10096;51.112;6.776;2023-01-15T05:11:40;6.00;;;1.80;;
19867;SDS011;10096;51.112;6.776;2023-01-15T05:14:07;3.90;;;1.90;;
19867;SDS011;10096;51.112;6.776;2023-01-15T05:16:34;4.43;;;1.70;;
19867;SDS011;10096;51.112;6.776;2023-01-15T05:19:04;5.37;;;2.03;;
19867;SDS011;10096;51.112;6.776;2023-01-15T05:21:33;3.73;;;1.90;;
19867;SDS011;10096;51.112;6.776;2023-01-15T05:24:03;3.57;;;1.63;;
19867;SDS011;10096;51.112;6.776;2023-01-15T05:26:32;3.23;;;1.63;;
19867;SDS011;10096;51.112;6.776;2023-01-15T05:29:00;4.47;;;1.80;;
19867;SDS011;10096;51.112;6.776;2023-01-15T05:31:28;4.30;;;1.60;;
19867;SDS011;10096;51.112;6.776;2023-01-15T05:33:57;6.60;;;2.10;;
19867;SDS011;10096;51.112;6.776;2023-01-15T05:36:25;4.43;;;1.70;;
19867;SDS011;10096;51.112;6.776;2023-01-15T05:38:55;5.60;;;2.00;;
19867;SDS011;10096;51.112;6.776;2023-01-15T05:41:26;4.60;;;1.73;;
19867;SDS011;10096;51.112;6.776;2023-01-15T05:44:12;5.10;;;1.50;;
19867;SDS011;10096;51.112;6.776;2023-01-15T05:46:40;7.90;;;2.33;;
19867;SDS011;10096;51.112;6.776;2023-01-15T05:49:10;4.67;;;1.93;;
19867;SDS011;10096;51.112;6.776;2023-01-15T05:51:38;7.07;;;2.10;;
19867;SDS011;10096;51.112;6.776;2023-01-15T05:54:07;8.37;;;1.83;;
19867;SDS011;10096;51.112;6.776;2023-01-15T05:56:37;5.20;;;2.00;;
19867;SDS011;10096;51.112;6.776;2023-01-15T05:59:05;3.50;;;1.63;;
19867;SDS011;10096;51.112;6.776;2023-01-15T06:01:32;4.17;;;1.70;;
19867;SDS011;10096;51.112;6.776;2023-01-15T06:04:00;4.37;;;1.87;;
19867;SDS011;10096;51.112;6.776;2023-01-15T06:06:29;3.77;;;2.27;;
19867;SDS011;10096;51.112;6.776;2023-01-15T06:08:56;5.63;;;1.93;;
19867;SDS011;10096;51.112;6.776;2023-01-15T06:11:23;5.57;;;1.83;;
19867;SDS011;10096;51.112;6.776;2023-01-15T06:13:51;5.63;;;2.00;;
19867;SDS011;10096;51.112;6.776;2023-01-15T06:16:19;3.63;;;1.90;;
19867;SDS011;10096;51.112;6.776;2023-01-15T06:18:46;6.90;;;1.90;;
19867;SDS011;10096;51.112;6.776;2023-01-15T06:21:13;3.90;;;1.70;;
19867;SDS011;10096;51.112;6.776;2023-01-15T06:23:41;3.53;;;1.80;;
19867;SDS011;10096;51.112;6.776;2023-01-15T06:26:10;5.60;;;2.17;;
19867;SDS011;10096;51.112;6.776;2023-01-15T06:28:38;6.07;;;1.90;;
19867;SDS011;10096;51.112;6.776;2023-01-15T06:31:07;4.43;;;1.90;;
19867;SDS011;10096;51.112;6.776;2023-01-15T06:33:36;6.13;;;1.90;;
19867;SDS011;10096;51.112;6.776;2023-01-15T06:36:03;3.27;;;2.07;;
19867;SDS011;10096;51.112;6.776;2023-01-15T06:38:31;4.93;;;1.50;;
19867;SDS011;10096;51.112;6.776;2023-01-15T06:40:58;6.17;;;1.90;;
19867;SDS011;10096;51.112;6.776;2023-01-15T06:43:26;6.73;;;1.90;;
19867;SDS011;10096;51.112;6.776;2023-01-15T06:46:11;3.43;;;1.47;;
19867;SDS011;10096;51.112;6.776;2023-01-15T06:48:53;6.00;;;1.73;;
19867;SDS011;10096;51.112;6.776;2023-01-15T06:51:20;3.87;;;1.70;;
19867;SDS011;10096;51.112;6.776;2023-01-15T06:53:46;3.53;;;1.67;;
19867;SDS011;10096;51.112;6.776;2023-01-15T06:56:13;4.63;;;1.70;;
19867;SDS011;10096;51.112;6.776;2023-01-15T06:58:41;4.20;;;1.60;;
19867;SDS011;10096;51.112;6.776;2023-01-15T07:01:08;4.20;;;1.50;;
19867;SDS011;10096;51.112;6.776;2023-01-15T07:03:38;3.37;;;1.80;;
19867;SDS011;10096;51.112;6.776;2023-01-15T07:06:06;2.63;;;1.40;;
19867;SDS011;10096;51.112;6.776;2023-01-15T07:08:33;8.47;;;2.40;;
19867;SDS011;10096;51.112;6.776;2023-01-15T07:11:03;4.63;;;1.80;;
19867;SDS011;10096;51.112;6.776;2023-01-15T07:13:31;4.93;;;2.57;;
19867;SDS011;10096;51.112;6.776;2023-01-15T07:15:58;3.67;;;2.17;;
19867;SDS011;10096;51.112;6.776;2023-01-15T07:18:26;5.43;;;2.90;;
19867;SDS011;10096;51.112;6.776;2023-01-15T07:20:56;8.83;;;2.70;;
19867;SDS011;10096;51.112;6.776;2023-01-15T07:23:23;5.40;;;1.93;;
19867;SDS011;10096;51.112;6.776;2023-01-15T07:25:51;4.73;;;1.90;;
19867;SDS011;10096;51.112;6.776;2023-01-15T07:28:19;8.50;;;1.87;;
19867;SDS011;10096;51.112;6.776;2023-01-15T07:30:47;3.70;;;1.70;;
19867;SDS011;10096;51.112;6.776;2023-01-15T07:33:14;5.73;;;2.10;;
19867;SDS011;10096;51.112;6.776;2023-01-15T07:35:41;5.03;;;2.00;;
19867;SDS011;10096;51.112;6.776;2023-01-15T07:38:10;4.97;;;1.70;;
19867;SDS011;10096;51.112;6.776;2023-01-15T07:40:37;3.57;;;1.63;;
19867;SDS011;10096;51.112;6.776;2023-01-15T07:43:04;2.90;;;1.50;;
19867;SDS011;10096;51.112;6.776;2023-01-15T07:45:48;4.20;;;1.80;;
19867;SDS011;10096;51.112;6.776;2023-01-15T07:48:47;3.77;;;2.93;;
19867;SDS011;10096;51.112;6.776;2023-01-15T07:51:31;5.40;;;2.03;;
19867;SDS011;10096;51.112;6.776;2023-01-15T07:53:59;4.43;;;1.70;;
19867;SDS011;10096;51.112;6.776;2023-01-15T07:56:26;4.77;;;2.00;;
19867;SDS011;10096;51.112;6.776;2023-01-15T07:58:54;2.73;;;1.67;;
19867;SDS011;10096;51.112;6.776;2023-01-15T08:01:21;3.83;;;2.17;;
19867;SDS011;10096;51.112;6.776;2023-01-15T08:03:48;2.60;;;1.93;;
19867;SDS011;10096;51.112;6.776;2023-01-15T08:06:15;5.30;;;1.70;;
19867;SDS011;10096;51.112;6.776;2023-01-15T08:08:41;3.07;;;1.40;;
19867;SDS011;10096;51.112;6.776;2023-01-15T08:11:10;3.47;;;1.73;;
19867;SDS011;10096;51.112;6.776;2023-01-15T08:13:54;2.43;;;1.50;;
19867;SDS011;10096;51.112;6.776;2023-01-15T08:16:38;4.40;;;1.70;;
19867;SDS011;10096;51.112;6.776;2023-01-15T08:19:05;2.83;;;1.30;;
19867;SDS011;10096;51.112;6.776;2023-01-15T08:21:32;1.73;;;1.30;;
19867;SDS011;10096;51.112;6.776;2023-01-15T08:23:59;4.07;;;1.43;;
19867;SDS011;10096;51.112;6.776;2023-01-15T08:26:28;4.47;;;1.97;;
19867;SDS011;10096;51.112;6.776;2023-01-15T08:28:54;2.37;;;1.50;;
19867;SDS011;10096;51.112;6.776;2023-01-15T08:31:21;2.83;;;1.27;;
19867;SDS011;10096;51.112;6.776;2023-01-15T08:33:48;2.30;;;1.47;;
19867;SDS011;10096;51.112;6.776;2023-01-15T08:36:15;3.70;;;1.33;;
19867;SDS011;10096;51.112;6.776;2023-01-15T08:38:47;2.00;;;1.60;;
19867;SDS011;10096;51.112;6.776;2023-01-15T08:41:15;2.17;;;1.57;;
19867;SDS011;10096;51.112;6.776;2023-01-15T08:43:44;3.03;;;1.50;;
19867;SDS011;10096;51.112;6.776;2023-01-15T08:46:10;3.57;;;1.30;;
19867;SDS011;10096;51.112;6.776;2023-01-15T08:48:37;3.13;;;1.50;;
19867;SDS011;10096;51.112;6.776;2023-01-15T08:51:05;2.43;;;1.40;;
19867;SDS011;10096;51.112;6.776;2023-01-15T08:53:33;2.47;;;1.23;;
19867;SDS011;10096;51.112;6.776;2023-01-15T08:56:00;1.87;;;0.90;;
19867;SDS011;10096;51.112;6.776;2023-01-15T08:58:28;2.60;;;1.37;;
19867;SDS011;10096;51.112;6.776;2023-01-15T09:01:02;2.37;;;1.60;;
19867;SDS011;10096;51.112;6.776;2023-01-15T09:03:32;3.03;;;1.63;;
19867;SDS011;10096;51.112;6.776;2023-01-15T09:06:01;2.20;;;1.80;;
19867;SDS011;10096;51.112;6.776;2023-01-15T09:08:30;2.50;;;1.73;;
19867;SDS011;10096;51.112;6.776;2023-01-15T09:10:57;4.60;;;1.93;;
19867;SDS011;10096;51.112;6.776;2023-01-15T09:13:24;3.23;;;1.90;;
19867;SDS011;10096;51.112;6.776;2023-01-15T09:15:51;2.77;;;1.40;;
19867;SDS011;10096;51.112;6.776;2023-01-15T09:18:20;5.40;;;2.10;;
19867;SDS011;10096;51.112;6.776;2023-01-15T09:20:48;4.07;;;2.03;;
19867;SDS011;10096;51.112;6.776;2023-01-15T09:23:15;4.80;;;2.37;;
19867;SDS011;10096;51.112;6.776;2023-01-15T09:25:49;5.07;;;2.27;;
19867;SDS011;10096;51.112;6.776;2023-01-15T09:28:16;5.23;;;2.27;;
19867;SDS011;10096;51.112;6.776;2023-01-15T09:30:44;5.80;;;1.83;;
19867;SDS011;10096;51.112;6.776;2023-01-15T09:33:11;8.13;;;2.33;;
19867;SDS011;10096;51.112;6.776;2023-01-15T09:35:40;5.90;;;1.93;;
19867;SDS011;10096;51.112;6.776;2023-01-15T09:38:09;4.70;;;1.90;;
19867;SDS011;10096;51.112;6.776;2023-01-15T09:40:42;5.67;;;1.77;;
19867;SDS011;10096;51.112;6.776;2023-01-15T09:43:16;5.60;;;2.33;;
19867;SDS011;10096;51.112;6.776;2023-01-15T09:46:03;5.33;;;1.90;;
19867;SDS011;10096;51.112;6.776;2023-01-15T09:48:39;7.27;;;2.07;;
19867;SDS011;10096;51.112;6.776;2023-01-15T09:51:15;6.80;;;2.33;;
19867;SDS011;10096;51.112;6.776;2023-01-15T09:53:53;8.67;;;2.43;;
19867;SDS011;10096;51.112;6.776;2023-01-15T09:56:29;4.53;;;1.80;;
19867;SDS011;10096;51.112;6.776;2023-01-15T09:59:04;4.67;;;2.10;;
19867;SDS011;10096;51.112;6.776;2023-01-15T10:01:40;8.03;;;2.50;;
19867;SDS011;10096;51.112;6.776;2023-01-15T10:04:11;6.03;;;2.23;;
19867;SDS011;10096;51.112;6.776;2023-01-15T10:06:44;5.47;;;2.23;;
19867;SDS011;10096;51.112;6.776;2023-01-15T10:09:20;7.20;;;2.93;;
19867;SDS011;10096;51.112;6.776;2023-01-15T10:11:55;6.97;;;2.90;;
19867;SDS011;10096;51.112;6.776;2023-01-15T10:14:46;6.00;;;2.10;;
19867;SDS011;10096;51.112;6.776;2023-01-15T10:17:21;6.87;;;2.20;;
19867;SDS011;10096;51.112;6.776;2023-01-15T10:19:52;6.03;;;2.47;;
19867;SDS011;10096;51.112;6.776;2023-01-15T10:22:27;7.53;;;2.37;;
19867;SDS011;10096;51.112;6.776;2023-01-15T10:25:01;7.57;;;2.23;;
19867;SDS011;10096;51.112;6.776;2023-01-15T10:27:34;7.30;;;2.30;;
19867;SDS011;10096;51.112;6.776;2023-01-15T10:30:04;6.53;;;3.53;;
19867;SDS011;10096;51.112;6.776;2023-01-15T10:32:41;7.50;;;2.27;;
19867;SDS011;10096;51.112;6.776;2023-01-15T10:35:23;6.77;;;2.60;;
19867;SDS011;10096;51.112;6.776;2023-01-15T10:38:00;7.77;;;2.60;;
19867;SDS011;10096;51.112;6.776;2023-01-15T10:43:30;5.67;;;2.27;;
19867;SDS011;10096;51.112;6.776;2023-01-15T10:46:09;3.77;;;1.90;;
19867;SDS011;10096;51.112;6.776;2023-01-15T10:48:39;5.83;;;1.80;;
19867;SDS011;10096;51.112;6.776;2023-01-15T10:51:12;6.47;;;2.73;;
19867;SDS011;10096;51.112;6.776;2023-01-15T10:53:43;3.67;;;1.90;;
19867;SDS011;10096;51.112;6.776;2023-01-15T10:56:16;9.03;;;3.13;;
19867;SDS011;10096;51.112;6.776;2023-01-15T10:58:54;5.67;;;2.00;;
19867;SDS011;10096;51.112;6.776;2023-01-15T11:01:24;7.60;;;2.70;;
19867;SDS011;10096;51.112;6.776;2023-01-15T11:03:53;4.77;;;2.73;;
19867;SDS011;10096;51.112;6.776;2023-01-15T11:06:21;5.53;;;2.47;;
19867;SDS011;10096;51.112;6.776;2023-01-15T11:08:51;5.67;;;3.40;;
19867;SDS011;10096;51.112;6.776;2023-01-15T11:11:21;5.67;;;2.20;;
19867;SDS011;10096;51.112;6.776;2023-01-15T11:14:20;2.53;;;1.70;;
19867;SDS011;10096;51.112;6.776;2023-01-15T11:17:15;4.13;;;2.17;;
19867;SDS011;10096;51.112;6.776;2023-01-15T11:19:59;4.53;;;1.93;;
19867;SDS011;10096;51.112;6.776;2023-01-15T11:22:27;7.90;;;2.10;;
19867;SDS011;10096;51.112;6.776;2023-01-15T11:24:55;3.50;;;2.37;;
19867;SDS011;10096;51.112;6.776;2023-01-15T11:27:24;5.37;;;2.10;;
19867;SDS011;10096;51.112;6.776;2023-01-15T11:29:57;5.13;;;1.90;;
19867;SDS011;10096;51.112;6.776;2023-01-15T11:32:27;4.40;;;2.57;;
19867;SDS011;10096;51.112;6.776;2023-01-15T11:34:56;4.73;;;2.30;;
19867;SDS011;10096;51.112;6.776;2023-01-15T11:37:24;6.10;;;2.60;;
19867;SDS011;10096;51.112;6.776;2023-01-15T11:39:53;6.40;;;2.30;;
19867;SDS011;10096;51.112;6.776;2023-01-15T11:42:24;3.13;;;1.90;;
19867;SDS011;10096;51.112;6.776;2023-01-15T11:45:14;4.90;;;2.10;;
19867;SDS011;10096;51.112;6.776;2023-01-15T11:48:00;3.23;;;1.70;;
19867;SDS011;10096;51.112;6.776;2023-01-15T11:50:49;5.07;;;2.10;;
19867;SDS011;10096;51.112;6.776;2023-01-15T11:53:19;4.20;;;1.77;;
19867;SDS011;10096;51.112;6.776;2023-01-15T11:55:49;6.53;;;2.63;;
19867;SDS011;10096;51.112;6.776;2023-01-15T11:58:18;6.50;;;1.80;;
19867;SDS011;10096;51.112;6.776;2023-01-15T12:00:48;4.07;;;2.17;;
19867;SDS011;10096;51.112;6.776;2023-01-15T12:03:18;3.37;;;2.27;;
19867;SDS011;10096;51.112;6.776;2023-01-15T12:05:53;4.60;;;2.30;;
19867;SDS011;10096;51.112;6.776;2023-01-15T12:08:27;7.27;;;3.20;;
19867;SDS011;10096;51.112;6.776;2023-01-15T12:11:07;3.37;;;2.33;;
19867;SDS011;10096;51.112;6.776;2023-01-15T12:13:45;3.10;;;1.83;;
19867;SDS011;10096;51.112;6.776;2023-01-15T12:16:22;5.00;;;2.00;;
19867;SDS011;10096;51.112;6.776;2023-01-15T12:18:56;2.90;;;1.67;;
19867;SDS011;10096;51.112;6.776;2023-01-15T12:21:42;5.23;;;2.30;;
19867;SDS011;10096;51.112;6.776;2023-01-15T12:30:29;3.27;;;1.70;;
19867;SDS011;10096;51.112;6.776;2023-01-15T12:33:19;3.70;;;2.20;;
19867;SDS011;10096;51.112;6.776;2023-01-15T12:36:00;3.43;;;1.50;;
19867;SDS011;10096;51.112;6.776;2023-01-15T12:38:36;4.43;;;1.67;;
19867;SDS011;10096;51.112;6.776;2023-01-15T12:41:25;3.87;;;2.17;;
19867;SDS011;10096;51.112;6.776;2023-01-15T12:44:15;3.87;;;2.00;;
19867;SDS011;10096;51.112;6.776;2023-01-15T12:47:06;3.13;;;2.30;;
19867;SDS011;10096;51.112;6.776;2023-01-15T12:49:41;3.17;;;1.67;;
19867;SDS011;10096;51.112;6.776;2023-01-15T12:52:17;4.13;;;1.93;;
19867;SDS011;10096;51.112;6.776;2023-01-15T12:54:49;6.07;;;3.27;;
19867;SDS011;10096;51.112;6.776;2023-01-15T12:57:21;6.10;;;3.33;;
19867;SDS011;10096;51.112;6.776;2023-01-15T12:59:56;4.17;;;1.97;;
19867;SDS011;10096;51.112;6.776;2023-01-15T13:02:28;4.53;;;2.00;;
19867;SDS011;10096;51.112;6.776;2023-01-15T13:05:12;2.70;;;2.33;;
19867;SDS011;10096;51.112;6.776;2023-01-15T13:07:46;3.33;;;2.17;;
19867;SDS011;10096;51.112;6.776;2023-01-15T13:10:19;3.63;;;1.90;;
19867;SDS011;10096;51.112;6.776;2023-01-15T13:12:49;1.83;;;1.73;;
19867;SDS011;10096;51.112;6.776;2023-01-15T13:15:23;5.20;;;1.83;;
19867;SDS011;10096;51.112;6.776;2023-01-15T13:18:00;4.30;;;2.40;;
19867;SDS011;10096;51.112;6.776;2023-01-15T13:20:39;4.53;;;1.83;;
19867;SDS011;10096;51.112;6.776;2023-01-15T13:23:18;2.80;;;1.50;;
19867;SDS011;10096;51.112;6.776;2023-01-15T13:26:15;2.35;;;1.50;;
19867;SDS011;10096;51.112;6.776;2023-01-15T13:28:52;6.03;;;3.00;;
19867;SDS011;10096;51.112;6.776;2023-01-15T13:31:44;5.00;;;2.30;;
19867;SDS011;10096;51.112;6.776;2023-01-15T13:34:22;6.07;;;2.37;;
19867;SDS011;10096;51.112;6.776;2023-01-15T13:36:58;3.53;;;2.17;;
19867;SDS011;10096;51.112;6.776;2023-01-15T13:39:35;2.50;;;1.40;;
19867;SDS011;10096;51.112;6.776;2023-01-15T13:42:10;3.37;;;1.77;;
19867;SDS011;10096;51.112;6.776;2023-01-15T13:44:58;3.13;;;2.40;;
19867;SDS011;10096;51.112;6.776;2023-01-15T13:47:30;3.50;;;1.87;;
19867;SDS011;10096;51.112;6.776;2023-01-15T13:50:01;4.07;;;1.70;;
19867;SDS011;10096;51.112;6.776;2023-01-15T13:52:34;2.90;;;1.83;;
19867;SDS011;10096;51.112;6.776;2023-01-15T13:55:07;2.43;;;1.70;;
19867;SDS011;10096;51.112;6.776;2023-01-15T13:57:37;4.90;;;1.97;;
19867;SDS011;10096;51.112;6.776;2023-01-15T14:00:06;6.90;;;4.33;;
19867;SDS011;10096;51.112;6.776;2023-01-15T14:02:51;11.13;;;7.77;;
19867;SDS011;10096;51.112;6.776;2023-01-15T14:05:27;9.90;;;6.33;;
19867;SDS011;10096;51.112;6.776;2023-01-15T14:07:58;3.70;;;1.73;;
19867;SDS011;10096;51.112;6.776;2023-01-15T14:10:34;3.43;;;2.07;;
19867;SDS011;10096;51.112;6.776;2023-01-15T14:16:16;4.67;;;2.30;;
19867;SDS011;10096;51.112;6.776;2023-01-15T14:21:50;4.73;;;2.03;;
19867;SDS011;10096;51.112;6.776;2023-01-15T14:24:41;6.07;;;4.27;;
19867;SDS011;10096;51.112;6.776;2023-01-15T14:27:34;2.73;;;2.03;;
19867;SDS011;10096;51.112;6.776;2023-01-15T14:30:32;2.67;;;2.30;;
19867;SDS011;10096;51.112;6.776;2023-01-15T14:33:19;3.10;;;1.73;;
19867;SDS011;10096;51.112;6.776;2023-01-15T14:35:55;4.10;;;2.43;;
19867;SDS011;10096;51.112;6.776;2023-01-15T14:38:23;6.40;;;3.50;;
19867;SDS011;10096;51.112;6.776;2023-01-15T14:40:55;4.00;;;2.27;;
19867;SDS011;10096;51.112;6.776;2023-01-15T14:43:25;1.50;;;1.40;;
19867;SDS011;10096;51.112;6.776;2023-01-15T14:45:54;5.50;;;2.23;;
19867;SDS011;10096;51.112;6.776;2023-01-15T14:48:33;3.93;;;2.07;;
19867;SDS011;10096;51.112;6.776;2023-01-15T14:51:09;2.83;;;1.87;;
19867;SDS011;10096;51.112;6.776;2023-01-15T14:53:39;7.27;;;3.23;;
19867;SDS011;10096;51.112;6.776;2023-01-15T14:56:18;6.60;;;2.80;;
19867;SDS011;10096;51.112;6.776;2023-01-15T14:58:50;8.03;;;2.50;;
19867;SDS011;10096;51.112;6.776;2023-01-15T15:01:23;8.33;;;3.00;;
19867;SDS011;10096;51.112;6.776;2023-01-15T15:03:57;2.60;;;1.83;;
19867;SDS011;10096;51.112;6.776;2023-01-15T15:06:30;4.57;;;2.17;;
19867;SDS011;10096;51.112;6.776;2023-01-15T15:09:03;4.67;;;2.00;;
19867;SDS011;10096;51.112;6.776;2023-01-15T15:11:40;4.13;;;1.87;;
19867;SDS011;10096;51.112;6.776;2023-01-15T15:14:28;3.03;;;1.50;;
19867;SDS011;10096;51.112;6.776;2023-01-15T15:16:57;2.23;;;1.30;;
19867;SDS011;10096;51.112;6.776;2023-01-15T15:19:28;2.87;;;2.00;;
19867;SDS011;10096;51.112;6.776;2023-01-15T15:22:02;3.20;;;1.67;;
19867;SDS011;10096;51.112;6.776;2023-01-15T15:24:32;3.80;;;2.53;;
19867;SDS011;10096;51.112;6.776;2023-01-15T15:27:18;5.60;;;2.07;;
19867;SDS011;10096;51.112;6.776;2023-01-15T15:29:46;4.67;;;1.60;;
19867;SDS011;10096;51.112;6.776;2023-01-15T15:32:14;5.03;;;1.90;;
19867;SDS011;10096;51.112;6.776;2023-01-15T15:34:45;2.53;;;2.00;;